sensor_id;sensor_type;location;lat;lon;timestamp;temperature;humidity
5940;DHT22;2995;-31.998;115.906;2023-05-15T00:01:12;12.00;99.90
5940;DHT22;2995;-31.998;115.906;2023-05-15T00:03:44;12.00;99.90
5940;DHT22;2995;-31.998;115.906;2023-05-15T00:06:15;11.90;99.90
5940;DHT22;2995;-31.998;115.906;2023-05-15T00:08:47;12.00;99.90
5940;DHT22;2995;-31.998;115.906;2023-05-15T00:11:18;12.00;99.90
5940;DHT22;2995;-31.998;115.906;2023-05-15T00:13:50;12.00;99.90
5940;DHT22;2995;-31.998;115.906;2023-05-15T00:16:23;12.10;99.90
5940;DHT22;2995;-31.998;115.906;2023-05-15T00:18:55;12.10;99.90
5940;DHT22;2995;-31.998;115.906;2023-05-15T00:21:26;12.10;99.90
5940;DHT22;2995;-31.998;115.906;2023-05-15T00:23:58;12.10;99.90
5940;DHT22;2995;-31.998;115.906;2023-05-15T00:26:29;12.10;99.90
5940;DHT22;2995;-31.998;115.906;2023-05-15T00:29:00;12.20;99.90
5940;DHT22;2995;-31.998;115.906;2023-05-15T00:31:33;12.20;99.90
5940;DHT22;2995;-31.998;115.906;2023-05-15T00:34:04;12.30;99.90
5940;DHT22;2995;-31.998;115.906;2023-05-15T00:36:36;12.40;99.90
5940;DHT22;2995;-31.998;115.906;2023-05-15T00:39:07;12.50;99.90
5940;DHT22;2995;-31.998;115.906;2023-05-15T00:41:39;12.50;99.90
5940;DHT22;2995;-31.998;115.906;2023-05-15T00:44:12;12.60;99.90
5940;DHT22;2995;-31.998;115.906;2023-05-15T00:46:49;12.70;99.90
5940;DHT22;2995;-31.998;115.906;2023-05-15T00:49:22;12.80;99.90
5940;DHT22;2995;-31.998;115.906;2023-05-15T00:51:54;12.80;99.90
5940;DHT22;2995;-31.998;115.906;2023-05-15T00:54:26;12.90;99.90
5940;DHT22;2995;-31.998;115.906;2023-05-15T00:56:57;13.00;99.90
5940;DHT22;2995;-31.998;115.906;2023-05-15T00:59:29;13.10;99.90
5940;DHT22;2995;-31.998;115.906;2023-05-15T01:02:05;13.20;99.90
5940;DHT22;2995;-31.998;115.906;2023-05-15T01:04:39;13.20;99.90
5940;DHT22;2995;-31.998;115.906;2023-05-15T01:07:13;13.40;99.90
5940;DHT22;2995;-31.998;115.906;2023-05-15T01:09:48;13.60;99.90
5940;DHT22;2995;-31.998;115.906;2023-05-15T01:12:24;13.80;99.90
5940;DHT22;2995;-31.998;115.906;2023-05-15T01:14:58;13.90;99.90
5940;DHT22;2995;-31.998;115.906;2023-05-15T01:17:34;14.00;99.90
5940;DHT22;2995;-31.998;115.906;2023-05-15T01:20:09;14.20;99.90
5940;DHT22;2995;-31.998;115.906;2023-05-15T01:22:51;14.20;99.90
5940;DHT22;2995;-31.998;115.906;2023-05-15T01:25:45;14.20;99.90
5940;DHT22;2995;-31.998;115.906;2023-05-15T01:28:28;14.40;99.90
5940;DHT22;2995;-31.998;115.906;2023-05-15T01:31:04;14.70;99.90
5940;DHT22;2995;-31.998;115.906;2023-05-15T01:33:41;14.80;99.90
5940;DHT22;2995;-31.998;115.906;2023-05-15T01:36:20;14.90;99.90
5940;DHT22;2995;-31.998;115.906;2023-05-15T01:38:55;15.00;99.90
5940;DHT22;2995;-31.998;115.906;2023-05-15T01:41:29;15.00;99.90
5940;DHT22;2995;-31.998;115.906;2023-05-15T01:44:05;15.10;99.90
5940;DHT22;2995;-31.998;115.906;2023-05-15T01:46:38;15.10;99.90
5940;DHT22;2995;-31.998;115.906;2023-05-15T01:49:12;15.10;99.90
5940;DHT22;2995;-31.998;115.906;2023-05-15T01:51:47;15.20;99.90
5940;DHT22;2995;-31.998;115.906;2023-05-15T01:54:20;15.50;99.90
5940;DHT22;2995;-31.998;115.906;2023-05-15T01:56:53;15.70;99.90
5940;DHT22;2995;-31.998;115.906;2023-05-15T01:59:28;15.80;99.90
5940;DHT22;2995;-31.998;115.906;2023-05-15T02:02:00;15.90;99.90
5940;DHT22;2995;-31.998;115.906;2023-05-15T02:04:33;15.90;99.90
5940;DHT22;2995;-31.998;115.906;2023-05-15T02:07:05;16.10;99.90
5940;DHT22;2995;-31.998;115.906;2023-05-15T02:09:37;16.20;99.90
5940;DHT22;2995;-31.998;115.906;2023-05-15T02:12:08;16.40;99.90
5940;DHT22;2995;-31.998;115.906;2023-05-15T02:14:43;16.40;99.90
5940;DHT22;2995;-31.998;115.906;2023-05-15T02:17:15;16.40;99.90
5940;DHT22;2995;-31.998;115.906;2023-05-15T02:19:46;16.50;99.90
5940;DHT22;2995;-31.998;115.906;2023-05-15T02:22:17;16.60;99.90
5940;DHT22;2995;-31.998;115.906;2023-05-15T02:24:48;16.70;99.90
5940;DHT22;2995;-31.998;115.906;2023-05-15T02:27:23;16.60;99.90
5940;DHT22;2995;-31.998;115.906;2023-05-15T02:30:05;16.70;99.90
5940;DHT22;2995;-31.998;115.906;2023-05-15T02:32:46;16.90;99.90
5940;DHT22;2995;-31.998;115.906;2023-05-15T02:35:30;16.90;99.90
5940;DHT22;2995;-31.998;115.906;2023-05-15T02:38:04;16.90;99.90
5940;DHT22;2995;-31.998;115.906;2023-05-15T02:40:38;16.90;99.90
5940;DHT22;2995;-31.998;115.906;2023-05-15T02:43:10;17.00;99.90
5940;DHT22;2995;-31.998;115.906;2023-05-15T02:45:46;17.20;99.90
5940;DHT22;2995;-31.998;115.906;2023-05-15T02:48:18;17.30;99.90
5940;DHT22;2995;-31.998;115.906;2023-05-15T02:50:50;17.40;99.90
5940;DHT22;2995;-31.998;115.906;2023-05-15T02:53:22;17.40;99.90
5940;DHT22;2995;-31.998;115.906;2023-05-15T02:55:53;17.40;99.90
5940;DHT22;2995;-31.998;115.906;2023-05-15T02:58:24;17.50;99.90
5940;DHT22;2995;-31.998;115.906;2023-05-15T03:00:58;17.60;99.90
5940;DHT22;2995;-31.998;115.906;2023-05-15T03:03:29;17.60;99.90
5940;DHT22;2995;-31.998;115.906;2023-05-15T03:06:01;17.50;99.90
5940;DHT22;2995;-31.998;115.906;2023-05-15T03:08:35;17.60;99.90
5940;DHT22;2995;-31.998;115.906;2023-05-15T03:11:08;17.70;99.90
5940;DHT22;2995;-31.998;115.906;2023-05-15T03:13:42;17.90;99.90
5940;DHT22;2995;-31.998;115.906;2023-05-15T03:16:19;18.10;99.90
5940;DHT22;2995;-31.998;115.906;2023-05-15T03:18:53;18.20;99.90
5940;DHT22;2995;-31.998;115.906;2023-05-15T03:21:26;18.30;99.90
5940;DHT22;2995;-31.998;115.906;2023-05-15T03:24:00;18.50;99.90
5940;DHT22;2995;-31.998;115.906;2023-05-15T03:26:33;18.50;99.90
5940;DHT22;2995;-31.998;115.906;2023-05-15T03:29:13;18.40;99.90
5940;DHT22;2995;-31.998;115.906;2023-05-15T03:31:47;18.40;99.90
5940;DHT22;2995;-31.998;115.906;2023-05-15T03:34:19;18.40;99.90
5940;DHT22;2995;-31.998;115.906;2023-05-15T03:36:50;18.50;99.90
5940;DHT22;2995;-31.998;115.906;2023-05-15T03:39:21;18.70;99.90
5940;DHT22;2995;-31.998;115.906;2023-05-15T03:41:53;18.80;99.90
5940;DHT22;2995;-31.998;115.906;2023-05-15T03:44:24;18.90;99.90
5940;DHT22;2995;-31.998;115.906;2023-05-15T03:46:58;18.80;99.90
5940;DHT22;2995;-31.998;115.906;2023-05-15T03:49:30;18.90;99.90
5940;DHT22;2995;-31.998;115.906;2023-05-15T03:52:01;18.90;99.90
5940;DHT22;2995;-31.998;115.906;2023-05-15T03:54:33;19.10;99.90
5940;DHT22;2995;-31.998;115.906;2023-05-15T03:57:04;19.20;99.90
5940;DHT22;2995;-31.998;115.906;2023-05-15T03:59:36;19.30;99.90
5940;DHT22;2995;-31.998;115.906;2023-05-15T04:02:09;19.20;99.90
5940;DHT22;2995;-31.998;115.906;2023-05-15T04:04:40;19.40;99.90
5940;DHT22;2995;-31.998;115.906;2023-05-15T04:07:11;19.40;99.90
5940;DHT22;2995;-31.998;115.906;2023-05-15T04:09:42;19.30;99.90
5940;DHT22;2995;-31.998;115.906;2023-05-15T04:12:14;19.30;99.90
5940;DHT22;2995;-31.998;115.906;2023-05-15T04:14:45;19.50;99.90
5940;DHT22;2995;-31.998;115.906;2023-05-15T04:17:18;19.50;99.90
5940;DHT22;2995;-31.998;115.906;2023-05-15T04:19:49;19.50;99.90
5940;DHT22;2995;-31.998;115.906;2023-05-15T04:22:20;19.50;99.90
5940;DHT22;2995;-31.998;115.906;2023-05-15T04:24:52;19.40;99.90
5940;DHT22;2995;-31.998;115.906;2023-05-15T04:27:23;19.30;99.90
5940;DHT22;2995;-31.998;115.906;2023-05-15T04:29:54;19.40;99.90
5940;DHT22;2995;-31.998;115.906;2023-05-15T04:32:28;19.40;99.90
5940;DHT22;2995;-31.998;115.906;2023-05-15T04:35:01;19.40;99.90
5940;DHT22;2995;-31.998;115.906;2023-05-15T04:37:32;19.50;99.90
5940;DHT22;2995;-31.998;115.906;2023-05-15T04:40:04;19.70;99.90
5940;DHT22;2995;-31.998;115.906;2023-05-15T04:42:35;19.50;99.90
5940;DHT22;2995;-31.998;115.906;2023-05-15T04:45:07;19.60;99.90
5940;DHT22;2995;-31.998;115.906;2023-05-15T04:47:41;19.60;99.90
5940;DHT22;2995;-31.998;115.906;2023-05-15T04:50:12;19.70;99.90
5940;DHT22;2995;-31.998;115.906;2023-05-15T04:52:43;19.60;99.90
5940;DHT22;2995;-31.998;115.906;2023-05-15T04:55:15;19.80;99.90
5940;DHT22;2995;-31.998;115.906;2023-05-15T04:57:47;19.90;99.90
5940;DHT22;2995;-31.998;115.906;2023-05-15T05:00:18;19.60;99.90
5940;DHT22;2995;-31.998;115.906;2023-05-15T05:02:52;19.70;99.90
5940;DHT22;2995;-31.998;115.906;2023-05-15T05:05:23;19.70;99.90
5940;DHT22;2995;-31.998;115.906;2023-05-15T05:07:55;19.80;99.90
5940;DHT22;2995;-31.998;115.906;2023-05-15T05:10:29;19.90;99.90
5940;DHT22;2995;-31.998;115.906;2023-05-15T05:13:03;19.90;99.90
5940;DHT22;2995;-31.998;115.906;2023-05-15T05:15:37;20.00;99.90
5940;DHT22;2995;-31.998;115.906;2023-05-15T05:18:13;20.20;99.90
5940;DHT22;2995;-31.998;115.906;2023-05-15T05:20:47;20.20;99.90
5940;DHT22;2995;-31.998;115.906;2023-05-15T05:23:20;20.10;99.90
5940;DHT22;2995;-31.998;115.906;2023-05-15T05:25:53;20.00;99.90
5940;DHT22;2995;-31.998;115.906;2023-05-15T05:28:26;19.90;99.90
5940;DHT22;2995;-31.998;115.906;2023-05-15T05:31:00;19.80;99.90
5940;DHT22;2995;-31.998;115.906;2023-05-15T05:33:35;19.80;99.90
5940;DHT22;2995;-31.998;115.906;2023-05-15T05:36:07;19.70;99.90
5940;DHT22;2995;-31.998;115.906;2023-05-15T05:38:38;19.60;99.90
5940;DHT22;2995;-31.998;115.906;2023-05-15T05:41:10;19.60;99.90
5940;DHT22;2995;-31.998;115.906;2023-05-15T05:43:41;19.60;99.90
5940;DHT22;2995;-31.998;115.906;2023-05-15T05:46:12;19.80;99.90
5940;DHT22;2995;-31.998;115.906;2023-05-15T05:48:45;19.90;99.90
5940;DHT22;2995;-31.998;115.906;2023-05-15T05:51:16;20.00;99.90
5940;DHT22;2995;-31.998;115.906;2023-05-15T05:53:48;20.00;99.90
5940;DHT22;2995;-31.998;115.906;2023-05-15T05:56:19;20.00;99.90
5940;DHT22;2995;-31.998;115.906;2023-05-15T05:58:50;20.00;99.90
5940;DHT22;2995;-31.998;115.906;2023-05-15T06:01:23;20.10;99.90
5940;DHT22;2995;-31.998;115.906;2023-05-15T06:03:56;19.90;99.90
5940;DHT22;2995;-31.998;115.906;2023-05-15T06:06:27;19.90;99.90
5940;DHT22;2995;-31.998;115.906;2023-05-15T06:08:59;20.00;99.90
5940;DHT22;2995;-31.998;115.906;2023-05-15T06:11:31;20.00;99.90
5940;DHT22;2995;-31.998;115.906;2023-05-15T06:14:02;19.90;99.90
5940;DHT22;2995;-31.998;115.906;2023-05-15T06:16:35;19.80;99.90
5940;DHT22;2995;-31.998;115.906;2023-05-15T06:19:08;19.70;99.90
5940;DHT22;2995;-31.998;115.906;2023-05-15T06:21:39;19.70;99.90
5940;DHT22;2995;-31.998;115.906;2023-05-15T06:24:10;19.80;99.90
5940;DHT22;2995;-31.998;115.906;2023-05-15T06:26:42;19.80;99.90
5940;DHT22;2995;-31.998;115.906;2023-05-15T06:29:13;19.80;99.90
5940;DHT22;2995;-31.998;115.906;2023-05-15T06:31:44;19.90;99.90
5940;DHT22;2995;-31.998;115.906;2023-05-15T06:34:17;19.90;99.90
5940;DHT22;2995;-31.998;115.906;2023-05-15T06:36:48;20.10;99.90
5940;DHT22;2995;-31.998;115.906;2023-05-15T06:39:20;20.20;99.90
5940;DHT22;2995;-31.998;115.906;2023-05-15T06:41:51;20.30;99.90
5940;DHT22;2995;-31.998;115.906;2023-05-15T06:44:26;20.30;99.90
5940;DHT22;2995;-31.998;115.906;2023-05-15T06:46:57;20.20;99.90
5940;DHT22;2995;-31.998;115.906;2023-05-15T06:49:31;20.20;99.90
5940;DHT22;2995;-31.998;115.906;2023-05-15T06:52:02;20.10;99.90
5940;DHT22;2995;-31.998;115.906;2023-05-15T06:54:33;20.20;99.90
5940;DHT22;2995;-31.998;115.906;2023-05-15T06:57:05;20.20;99.90
5940;DHT22;2995;-31.998;115.906;2023-05-15T06:59:37;20.10;99.90
5940;DHT22;2995;-31.998;115.906;2023-05-15T07:02:08;20.30;99.90
5940;DHT22;2995;-31.998;115.906;2023-05-15T07:04:42;20.00;99.90
5940;DHT22;2995;-31.998;115.906;2023-05-15T07:07:13;20.10;99.90
5940;DHT22;2995;-31.998;115.906;2023-05-15T07:09:45;20.10;99.90
5940;DHT22;2995;-31.998;115.906;2023-05-15T07:12:18;20.10;99.90
5940;DHT22;2995;-31.998;115.906;2023-05-15T07:14:51;20.10;99.90
5940;DHT22;2995;-31.998;115.906;2023-05-15T07:17:24;20.10;99.90
5940;DHT22;2995;-31.998;115.906;2023-05-15T07:19:59;20.00;99.90
5940;DHT22;2995;-31.998;115.906;2023-05-15T07:22:34;20.10;99.90
5940;DHT22;2995;-31.998;115.906;2023-05-15T07:25:07;20.00;99.90
5940;DHT22;2995;-31.998;115.906;2023-05-15T07:27:41;20.10;99.90
5940;DHT22;2995;-31.998;115.906;2023-05-15T07:30:14;20.10;99.90
5940;DHT22;2995;-31.998;115.906;2023-05-15T07:32:48;20.00;99.90
5940;DHT22;2995;-31.998;115.906;2023-05-15T07:35:24;20.00;99.90
5940;DHT22;2995;-31.998;115.906;2023-05-15T07:37:56;20.00;99.90
5940;DHT22;2995;-31.998;115.906;2023-05-15T07:40:28;20.00;99.90
5940;DHT22;2995;-31.998;115.906;2023-05-15T07:42:59;19.90;99.90
5940;DHT22;2995;-31.998;115.906;2023-05-15T07:45:31;19.90;99.90
5940;DHT22;2995;-31.998;115.906;2023-05-15T07:48:14;19.80;99.90
5940;DHT22;2995;-31.998;115.906;2023-05-15T07:50:47;19.90;99.90
5940;DHT22;2995;-31.998;115.906;2023-05-15T07:53:20;19.90;99.90
5940;DHT22;2995;-31.998;115.906;2023-05-15T07:55:52;19.90;99.90
5940;DHT22;2995;-31.998;115.906;2023-05-15T07:58:23;19.90;99.90
5940;DHT22;2995;-31.998;115.906;2023-05-15T08:00:54;19.70;99.90
5940;DHT22;2995;-31.998;115.906;2023-05-15T08:03:25;19.60;99.90
5940;DHT22;2995;-31.998;115.906;2023-05-15T08:05:59;19.60;99.90
5940;DHT22;2995;-31.998;115.906;2023-05-15T08:08:30;19.70;99.90
5940;DHT22;2995;-31.998;115.906;2023-05-15T08:11:01;19.60;99.90
5940;DHT22;2995;-31.998;115.906;2023-05-15T08:13:32;19.70;99.90
5940;DHT22;2995;-31.998;115.906;2023-05-15T08:16:04;19.80;99.90
5940;DHT22;2995;-31.998;115.906;2023-05-15T08:18:35;20.00;99.90
5940;DHT22;2995;-31.998;115.906;2023-05-15T08:21:08;19.90;99.90
5940;DHT22;2995;-31.998;115.906;2023-05-15T08:23:39;19.80;99.90
5940;DHT22;2995;-31.998;115.906;2023-05-15T08:26:11;19.80;99.90
5940;DHT22;2995;-31.998;115.906;2023-05-15T08:28:42;19.60;99.90
5940;DHT22;2995;-31.998;115.906;2023-05-15T08:31:14;19.50;99.90
5940;DHT22;2995;-31.998;115.906;2023-05-15T08:33:45;19.50;99.90
5940;DHT22;2995;-31.998;115.906;2023-05-15T08:36:18;19.40;99.90
5940;DHT22;2995;-31.998;115.906;2023-05-15T08:38:49;19.40;99.90
5940;DHT22;2995;-31.998;115.906;2023-05-15T08:41:31;19.40;99.90
5940;DHT22;2995;-31.998;115.906;2023-05-15T08:44:03;19.20;99.90
5940;DHT22;2995;-31.998;115.906;2023-05-15T08:46:35;19.10;99.90
5940;DHT22;2995;-31.998;115.906;2023-05-15T08:49:18;18.90;99.90
5940;DHT22;2995;-31.998;115.906;2023-05-15T08:51:52;19.00;99.90
5940;DHT22;2995;-31.998;115.906;2023-05-15T08:54:25;18.90;99.90
5940;DHT22;2995;-31.998;115.906;2023-05-15T08:56:58;18.80;99.90
5940;DHT22;2995;-31.998;115.906;2023-05-15T08:59:31;18.70;99.90
5940;DHT22;2995;-31.998;115.906;2023-05-15T09:02:03;18.60;99.90
5940;DHT22;2995;-31.998;115.906;2023-05-15T09:04:34;18.70;99.90
5940;DHT22;2995;-31.998;115.906;2023-05-15T09:07:08;18.50;99.90
5940;DHT22;2995;-31.998;115.906;2023-05-15T09:09:39;18.40;99.90
5940;DHT22;2995;-31.998;115.906;2023-05-15T09:12:12;18.30;99.90
5940;DHT22;2995;-31.998;115.906;2023-05-15T09:14:45;18.30;99.90
5940;DHT22;2995;-31.998;115.906;2023-05-15T09:17:20;18.20;99.90
5940;DHT22;2995;-31.998;115.906;2023-05-15T09:19:53;18.20;99.90
5940;DHT22;2995;-31.998;115.906;2023-05-15T09:22:34;18.20;99.90
5940;DHT22;2995;-31.998;115.906;2023-05-15T09:25:09;18.10;99.90
5940;DHT22;2995;-31.998;115.906;2023-05-15T09:27:46;18.00;99.90
5940;DHT22;2995;-31.998;115.906;2023-05-15T09:30:20;17.90;99.90
5940;DHT22;2995;-31.998;115.906;2023-05-15T09:32:55;17.80;99.90
5940;DHT22;2995;-31.998;115.906;2023-05-15T09:35:35;17.80;99.90
5940;DHT22;2995;-31.998;115.906;2023-05-15T09:38:12;17.70;99.90
5940;DHT22;2995;-31.998;115.906;2023-05-15T09:40:45;17.70;99.90
5940;DHT22;2995;-31.998;115.906;2023-05-15T09:43:17;17.60;99.90
5940;DHT22;2995;-31.998;115.906;2023-05-15T09:45:48;17.60;99.90
5940;DHT22;2995;-31.998;115.906;2023-05-15T09:48:19;17.50;99.90
5940;DHT22;2995;-31.998;115.906;2023-05-15T09:50:50;17.50;99.90
5940;DHT22;2995;-31.998;115.906;2023-05-15T09:53:24;17.50;99.90
5940;DHT22;2995;-31.998;115.906;2023-05-15T09:55:55;17.50;99.90
5940;DHT22;2995;-31.998;115.906;2023-05-15T09:58:27;17.50;99.90
5940;DHT22;2995;-31.998;115.906;2023-05-15T10:00:59;17.40;99.90
5940;DHT22;2995;-31.998;115.906;2023-05-15T10:03:31;17.40;99.90
5940;DHT22;2995;-31.998;115.906;2023-05-15T10:06:02;17.50;99.90
5940;DHT22;2995;-31.998;115.906;2023-05-15T10:08:35;17.40;99.90
5940;DHT22;2995;-31.998;115.906;2023-05-15T10:11:10;17.30;99.90
5940;DHT22;2995;-31.998;115.906;2023-05-15T10:13:41;17.30;99.90
5940;DHT22;2995;-31.998;115.906;2023-05-15T10:16:13;17.20;99.90
5940;DHT22;2995;-31.998;115.906;2023-05-15T10:18:45;17.20;99.90
5940;DHT22;2995;-31.998;115.906;2023-05-15T10:21:18;17.10;99.90
5940;DHT22;2995;-31.998;115.906;2023-05-15T10:23:55;17.00;99.90
5940;DHT22;2995;-31.998;115.906;2023-05-15T10:26:32;16.90;99.90
5940;DHT22;2995;-31.998;115.906;2023-05-15T10:29:07;16.80;99.90
5940;DHT22;2995;-31.998;115.906;2023-05-15T10:31:40;16.80;99.90
5940;DHT22;2995;-31.998;115.906;2023-05-15T10:34:11;16.70;99.90
5940;DHT22;2995;-31.998;115.906;2023-05-15T10:36:43;16.70;99.90
5940;DHT22;2995;-31.998;115.906;2023-05-15T10:39:17;16.60;99.90
5940;DHT22;2995;-31.998;115.906;2023-05-15T10:41:50;16.60;99.90
5940;DHT22;2995;-31.998;115.906;2023-05-15T10:44:23;16.50;99.90
5940;DHT22;2995;-31.998;115.906;2023-05-15T10:46:55;16.40;99.90
5940;DHT22;2995;-31.998;115.906;2023-05-15T10:49:26;16.40;99.90
5940;DHT22;2995;-31.998;115.906;2023-05-15T10:51:59;16.30;99.90
5940;DHT22;2995;-31.998;115.906;2023-05-15T10:54:32;16.30;99.90
5940;DHT22;2995;-31.998;115.906;2023-05-15T10:57:04;16.30;99.90
5940;DHT22;2995;-31.998;115.906;2023-05-15T10:59:41;16.10;99.90
5940;DHT22;2995;-31.998;115.906;2023-05-15T11:02:21;16.00;99.90
5940;DHT22;2995;-31.998;115.906;2023-05-15T11:04:57;16.00;99.90
5940;DHT22;2995;-31.998;115.906;2023-05-15T11:07:28;15.90;99.90
5940;DHT22;2995;-31.998;115.906;2023-05-15T11:10:34;15.90;99.90
5940;DHT22;2995;-31.998;115.906;2023-05-15T11:12:59;15.90;99.90
5940;DHT22;2995;-31.998;115.906;2023-05-15T11:15:41;15.70;99.90
5940;DHT22;2995;-31.998;115.906;2023-05-15T11:18:14;15.80;99.90
5940;DHT22;2995;-31.998;115.906;2023-05-15T11:21:08;15.80;99.90
5940;DHT22;2995;-31.998;115.906;2023-05-15T11:23:42;15.70;99.90
5940;DHT22;2995;-31.998;115.906;2023-05-15T11:26:33;15.60;99.90
5940;DHT22;2995;-31.998;115.906;2023-05-15T11:29:19;15.60;99.90
5940;DHT22;2995;-31.998;115.906;2023-05-15T11:31:53;15.50;99.90
5940;DHT22;2995;-31.998;115.906;2023-05-15T11:34:36;15.50;99.90
5940;DHT22;2995;-31.998;115.906;2023-05-15T11:37:19;15.40;99.90
5940;DHT22;2995;-31.998;115.906;2023-05-15T11:39:54;15.30;99.90
5940;DHT22;2995;-31.998;115.906;2023-05-15T11:42:29;15.30;99.90
5940;DHT22;2995;-31.998;115.906;2023-05-15T11:45:00;15.30;99.90
5940;DHT22;2995;-31.998;115.906;2023-05-15T11:47:31;15.20;99.90
5940;DHT22;2995;-31.998;115.906;2023-05-15T11:50:05;15.10;99.90
5940;DHT22;2995;-31.998;115.906;2023-05-15T11:52:37;15.10;99.90
5940;DHT22;2995;-31.998;115.906;2023-05-15T11:55:08;15.10;99.90
5940;DHT22;2995;-31.998;115.906;2023-05-15T11:57:42;15.10;99.90
5940;DHT22;2995;-31.998;115.906;2023-05-15T12:00:14;15.00;99.90
5940;DHT22;2995;-31.998;115.906;2023-05-15T12:02:45;14.90;99.90
5940;DHT22;2995;-31.998;115.906;2023-05-15T12:05:16;14.90;99.90
5940;DHT22;2995;-31.998;115.906;2023-05-15T12:07:48;14.80;99.90
5940;DHT22;2995;-31.998;115.906;2023-05-15T12:10:19;14.80;99.90
5940;DHT22;2995;-31.998;115.906;2023-05-15T12:12:52;14.70;99.90
5940;DHT22;2995;-31.998;115.906;2023-05-15T12:15:24;14.60;99.90
5940;DHT22;2995;-31.998;115.906;2023-05-15T12:17:57;14.60;99.90
5940;DHT22;2995;-31.998;115.906;2023-05-15T12:20:28;14.60;99.90
5940;DHT22;2995;-31.998;115.906;2023-05-15T12:23:00;14.60;99.90
5940;DHT22;2995;-31.998;115.906;2023-05-15T12:25:31;14.60;99.90
5940;DHT22;2995;-31.998;115.906;2023-05-15T12:28:05;14.60;99.90
5940;DHT22;2995;-31.998;115.906;2023-05-15T12:30:37;14.50;99.90
5940;DHT22;2995;-31.998;115.906;2023-05-15T12:33:09;14.50;99.90
5940;DHT22;2995;-31.998;115.906;2023-05-15T12:35:42;14.40;99.90
5940;DHT22;2995;-31.998;115.906;2023-05-15T12:38:15;14.40;99.90
5940;DHT22;2995;-31.998;115.906;2023-05-15T12:40:49;14.30;99.90
5940;DHT22;2995;-31.998;115.906;2023-05-15T12:43:24;14.20;99.90
5940;DHT22;2995;-31.998;115.906;2023-05-15T12:45:56;14.20;99.90
5940;DHT22;2995;-31.998;115.906;2023-05-15T12:48:30;14.20;99.90
5940;DHT22;2995;-31.998;115.906;2023-05-15T12:51:08;14.10;99.90
5940;DHT22;2995;-31.998;115.906;2023-05-15T12:53:42;14.00;99.90
5940;DHT22;2995;-31.998;115.906;2023-05-15T12:56:16;14.00;99.90
5940;DHT22;2995;-31.998;115.906;2023-05-15T12:58:50;14.00;99.90
5940;DHT22;2995;-31.998;115.906;2023-05-15T13:01:23;13.90;99.90
5940;DHT22;2995;-31.998;115.906;2023-05-15T13:03:54;13.90;99.90
5940;DHT22;2995;-31.998;115.906;2023-05-15T13:06:25;13.90;99.90
5940;DHT22;2995;-31.998;115.906;2023-05-15T13:08:57;13.90;99.90
5940;DHT22;2995;-31.998;115.906;2023-05-15T13:11:31;13.90;99.90
5940;DHT22;2995;-31.998;115.906;2023-05-15T13:14:08;13.90;99.90
5940;DHT22;2995;-31.998;115.906;2023-05-15T13:16:44;13.90;99.90
5940;DHT22;2995;-31.998;115.906;2023-05-15T13:19:17;13.80;99.90
5940;DHT22;2995;-31.998;115.906;2023-05-15T13:21:51;13.70;99.90
5940;DHT22;2995;-31.998;115.906;2023-05-15T13:24:25;13.60;99.90
5940;DHT22;2995;-31.998;115.906;2023-05-15T13:26:59;13.60;99.90
5940;DHT22;2995;-31.998;115.906;2023-05-15T13:29:36;13.50;99.90
5940;DHT22;2995;-31.998;115.906;2023-05-15T13:32:10;13.60;99.90
5940;DHT22;2995;-31.998;115.906;2023-05-15T13:34:44;13.50;99.90
5940;DHT22;2995;-31.998;115.906;2023-05-15T13:37:17;13.40;99.90
5940;DHT22;2995;-31.998;115.906;2023-05-15T13:39:51;13.40;99.90
5940;DHT22;2995;-31.998;115.906;2023-05-15T13:42:27;13.40;99.90
5940;DHT22;2995;-31.998;115.906;2023-05-15T13:45:03;13.40;99.90
5940;DHT22;2995;-31.998;115.906;2023-05-15T13:47:34;13.40;99.90
5940;DHT22;2995;-31.998;115.906;2023-05-15T13:50:08;13.30;99.90
5940;DHT22;2995;-31.998;115.906;2023-05-15T13:52:41;13.30;99.90
5940;DHT22;2995;-31.998;115.906;2023-05-15T13:55:13;13.30;99.90
5940;DHT22;2995;-31.998;115.906;2023-05-15T13:57:44;13.20;99.90
5940;DHT22;2995;-31.998;115.906;2023-05-15T14:00:18;13.20;99.90
5940;DHT22;2995;-31.998;115.906;2023-05-15T14:02:49;13.20;99.90
5940;DHT22;2995;-31.998;115.906;2023-05-15T14:05:21;13.20;99.90
5940;DHT22;2995;-31.998;115.906;2023-05-15T14:07:52;13.20;99.90
5940;DHT22;2995;-31.998;115.906;2023-05-15T14:10:24;13.20;99.90
5940;DHT22;2995;-31.998;115.906;2023-05-15T14:12:55;13.10;99.90
5940;DHT22;2995;-31.998;115.906;2023-05-15T14:15:29;13.10;99.90
5940;DHT22;2995;-31.998;115.906;2023-05-15T14:18:00;13.10;99.90
5940;DHT22;2995;-31.998;115.906;2023-05-15T14:20:32;13.10;99.90
5940;DHT22;2995;-31.998;115.906;2023-05-15T14:23:03;13.10;99.90
5940;DHT22;2995;-31.998;115.906;2023-05-15T14:25:34;13.10;99.90
5940;DHT22;2995;-31.998;115.906;2023-05-15T14:28:05;13.00;99.90
5940;DHT22;2995;-31.998;115.906;2023-05-15T14:30:39;13.00;99.90
5940;DHT22;2995;-31.998;115.906;2023-05-15T14:33:10;13.00;99.90
5940;DHT22;2995;-31.998;115.906;2023-05-15T14:35:41;12.80;99.90
5940;DHT22;2995;-31.998;115.906;2023-05-15T14:38:12;12.70;99.90
5940;DHT22;2995;-31.998;115.906;2023-05-15T14:40:44;12.80;99.90
5940;DHT22;2995;-31.998;115.906;2023-05-15T14:43:15;12.80;99.90
5940;DHT22;2995;-31.998;115.906;2023-05-15T14:45:48;12.70;99.90
5940;DHT22;2995;-31.998;115.906;2023-05-15T14:48:20;12.70;99.90
5940;DHT22;2995;-31.998;115.906;2023-05-15T14:50:51;12.70;99.90
5940;DHT22;2995;-31.998;115.906;2023-05-15T14:53:22;12.60;99.90
5940;DHT22;2995;-31.998;115.906;2023-05-15T14:55:54;12.50;99.90
5940;DHT22;2995;-31.998;115.906;2023-05-15T14:58:25;12.50;99.90
5940;DHT22;2995;-31.998;115.906;2023-05-15T15:00:59;12.40;99.90
5940;DHT22;2995;-31.998;115.906;2023-05-15T15:03:31;12.50;99.90
5940;DHT22;2995;-31.998;115.906;2023-05-15T15:06:02;12.40;99.90
5940;DHT22;2995;-31.998;115.906;2023-05-15T15:08:33;12.40;99.90
5940;DHT22;2995;-31.998;115.906;2023-05-15T15:11:05;12.40;99.90
5940;DHT22;2995;-31.998;115.906;2023-05-15T15:13:36;12.30;99.90
5940;DHT22;2995;-31.998;115.906;2023-05-15T15:16:09;12.30;99.90
5940;DHT22;2995;-31.998;115.906;2023-05-15T15:18:41;12.30;99.90
5940;DHT22;2995;-31.998;115.906;2023-05-15T15:21:12;12.30;99.90
5940;DHT22;2995;-31.998;115.906;2023-05-15T15:23:44;12.30;99.90
5940;DHT22;2995;-31.998;115.906;2023-05-15T15:26:19;12.20;99.90
5940;DHT22;2995;-31.998;115.906;2023-05-15T15:28:53;12.20;99.90
5940;DHT22;2995;-31.998;115.906;2023-05-15T15:31:32;12.00;99.90
5940;DHT22;2995;-31.998;115.906;2023-05-15T15:34:06;12.10;99.90
5940;DHT22;2995;-31.998;115.906;2023-05-15T15:36:40;12.00;99.90
5940;DHT22;2995;-31.998;115.906;2023-05-15T15:39:14;12.00;99.90
5940;DHT22;2995;-31.998;115.906;2023-05-15T15:41:47;12.00;99.90
5940;DHT22;2995;-31.998;115.906;2023-05-15T15:44:23;12.00;99.90
5940;DHT22;2995;-31.998;115.906;2023-05-15T15:46:57;12.00;99.90
5940;DHT22;2995;-31.998;115.906;2023-05-15T15:49:29;12.00;99.90
5940;DHT22;2995;-31.998;115.906;2023-05-15T15:52:00;12.00;99.90